CheckWX is a tool to help pilots better visualize weather data.  It is not intended as a substitute for an official pre-flight weather briefing.

21:09:13 UTC

KMWM METAR
Windom Municipal Airport
Windom, Minnesota, USA
Current

14 mins ago

KMWM 232055Z AUTO 30009G14KT 10SM SCT047 16/08 A3009 RMK AO2
Observed
May-23 @ 20:55 UTC
Wind
  • 300° at 9 KTS
  • Gusting to 14 KTS
Visibility
10 SM
Flight Rules
VFR
Cloud Levels
  • Scattered at 4,700' AGL
Temperature
16°C / 61°F
Dewpoint
C / 46°F
Humidity
59%
Altimeter
30.09" Hg
Pressure
1018.92 hPa
Previous

34 mins ago

KMWM 232035Z AUTO 29011KT 10SM SCT047 16/08 A3011 RMK AO2
Observed
May-23 @ 20:35 UTC
Wind
  • 290° at 11 KTS
Visibility
10 SM
Flight Rules
VFR
Cloud Levels
  • Scattered at 4,700' AGL
Temperature
16°C / 61°F
Dewpoint
C / 46°F
Humidity
59%
Altimeter
30.11" Hg
Pressure
1019.62 hPa
Previous

2 hours ago

KMWM 231916Z AUTO 23008KT 10SM OVC031 13/08 A3012 RMK AO2
Observed
May-23 @ 19:16 UTC
Wind
  • 230° at 8 KTS
Visibility
10 SM
Flight Rules
VFR
Cloud Levels
  • Overcast at 3,100' AGL
Temperature
13°C / 55°F
Dewpoint
C / 46°F
Humidity
72%
Altimeter
30.12" Hg
Pressure
1020.02 hPa